sensor_id;sensor_type;location;lat;lon;timestamp;pressure;altitude;pressure_sealevel;temperature;humidity
75497;BME280;64074;47.540;19.072;2023-06-14T00:00:33;100308.72;;;16.38;62.73
75497;BME280;64074;47.540;19.072;2023-06-14T00:03:37;100307.56;;;16.39;62.61
75497;BME280;64074;47.540;19.072;2023-06-14T00:06:42;100307.03;;;16.24;62.55
75497;BME280;64074;47.540;19.072;2023-06-14T00:09:48;100313.31;;;16.25;62.46
75497;BME280;64074;47.540;19.072;2023-06-14T00:12:51;100303.16;;;16.25;62.77
75497;BME280;64074;47.540;19.072;2023-06-14T00:15:55;100299.06;;;16.31;62.81
75497;BME280;64074;47.540;19.072;2023-06-14T00:18:58;100309.97;;;16.40;62.66
75497;BME280;64074;47.540;19.072;2023-06-14T00:22:01;100312.03;;;16.43;62.68
75497;BME280;64074;47.540;19.072;2023-06-14T00:25:04;100315.97;;;16.34;62.72
75497;BME280;64074;47.540;19.072;2023-06-14T00:28:25;100316.50;;;16.27;63.19
75497;BME280;64074;47.540;19.072;2023-06-14T00:31:28;100313.91;;;16.30;62.82
75497;BME280;64074;47.540;19.072;2023-06-14T00:34:32;100321.81;;;16.03;64.17
75497;BME280;64074;47.540;19.072;2023-06-14T00:37:36;100313.81;;;15.97;64.44
75497;BME280;64074;47.540;19.072;2023-06-14T00:40:39;100317.41;;;16.10;63.80
75497;BME280;64074;47.540;19.072;2023-06-14T00:43:42;100323.22;;;16.09;64.22
75497;BME280;64074;47.540;19.072;2023-06-14T00:46:45;100313.28;;;16.04;64.31
75497;BME280;64074;47.540;19.072;2023-06-14T00:49:50;100329.50;;;16.09;64.14
75497;BME280;64074;47.540;19.072;2023-06-14T00:52:54;100330.47;;;16.13;64.32
75497;BME280;64074;47.540;19.072;2023-06-14T00:55:58;100329.44;;;15.97;64.67
75497;BME280;64074;47.540;19.072;2023-06-14T00:59:02;100335.59;;;15.85;64.87
75497;BME280;64074;47.540;19.072;2023-06-14T01:02:05;100327.59;;;15.80;65.25
75497;BME280;64074;47.540;19.072;2023-06-14T01:05:12;100323.81;;;15.93;64.79
75497;BME280;64074;47.540;19.072;2023-06-14T01:08:25;100325.97;;;15.88;65.20
75497;BME280;64074;47.540;19.072;2023-06-14T01:11:35;100323.84;;;15.85;65.20
75497;BME280;64074;47.540;19.072;2023-06-14T01:14:41;100327.72;;;15.84;65.50
75497;BME280;64074;47.540;19.072;2023-06-14T01:17:45;100310.31;;;15.67;65.71
75497;BME280;64074;47.540;19.072;2023-06-14T01:20:50;100313.03;;;15.67;66.23
75497;BME280;64074;47.540;19.072;2023-06-14T01:23:56;100315.47;;;15.60;65.88
75497;BME280;64074;47.540;19.072;2023-06-14T01:27:02;100314.03;;;15.54;66.21
75497;BME280;64074;47.540;19.072;2023-06-14T01:30:06;100298.84;;;15.36;66.57
75497;BME280;64074;47.540;19.072;2023-06-14T01:33:09;100309.88;;;15.48;66.35
75497;BME280;64074;47.540;19.072;2023-06-14T01:36:14;100306.97;;;15.53;66.07
75497;BME280;64074;47.540;19.072;2023-06-14T01:39:18;100322.75;;;15.48;66.37
75497;BME280;64074;47.540;19.072;2023-06-14T01:42:25;100307.22;;;15.31;67.04
75497;BME280;64074;47.540;19.072;2023-06-14T01:45:30;100320.91;;;15.22;67.71
75497;BME280;64074;47.540;19.072;2023-06-14T01:48:35;100326.09;;;15.15;67.90
75497;BME280;64074;47.540;19.072;2023-06-14T01:51:39;100322.69;;;15.09;67.87
75497;BME280;64074;47.540;19.072;2023-06-14T01:54:45;100321.28;;;15.03;68.11
75497;BME280;64074;47.540;19.072;2023-06-14T01:57:53;100325.78;;;14.99;68.38
75497;BME280;64074;47.540;19.072;2023-06-14T02:00:59;100332.34;;;15.16;67.98
75497;BME280;64074;47.540;19.072;2023-06-14T02:04:03;100327.19;;;15.23;67.71
75497;BME280;64074;47.540;19.072;2023-06-14T02:07:07;100330.91;;;15.09;68.24
75497;BME280;64074;47.540;19.072;2023-06-14T02:10:14;100340.22;;;15.08;68.49
75497;BME280;64074;47.540;19.072;2023-06-14T02:13:19;100331.72;;;15.01;69.06
75497;BME280;64074;47.540;19.072;2023-06-14T02:16:22;100337.34;;;15.05;68.93
75497;BME280;64074;47.540;19.072;2023-06-14T02:19:25;100340.25;;;15.00;69.37
75497;BME280;64074;47.540;19.072;2023-06-14T02:22:29;100339.28;;;14.96;69.42
75497;BME280;64074;47.540;19.072;2023-06-14T02:25:32;100336.84;;;15.12;69.07
75497;BME280;64074;47.540;19.072;2023-06-14T02:28:36;100337.97;;;15.19;68.42
75497;BME280;64074;47.540;19.072;2023-06-14T02:31:40;100332.63;;;15.23;68.09
75497;BME280;64074;47.540;19.072;2023-06-14T02:34:43;100329.28;;;15.17;68.42
75497;BME280;64074;47.540;19.072;2023-06-14T02:37:50;100332.56;;;14.93;69.56
75497;BME280;64074;47.540;19.072;2023-06-14T02:40:55;100342.69;;;14.93;69.49
75497;BME280;64074;47.540;19.072;2023-06-14T02:43:58;100343.47;;;14.85;70.20
75497;BME280;64074;47.540;19.072;2023-06-14T02:47:04;100338.13;;;15.05;69.84
75497;BME280;64074;47.540;19.072;2023-06-14T02:50:08;100329.00;;;15.01;69.55
75497;BME280;64074;47.540;19.072;2023-06-14T02:53:11;100326.78;;;14.86;70.50
75497;BME280;64074;47.540;19.072;2023-06-14T02:56:15;100330.63;;;14.85;70.83
75497;BME280;64074;47.540;19.072;2023-06-14T02:59:22;100330.31;;;14.87;70.93
75497;BME280;64074;47.540;19.072;2023-06-14T03:02:30;100329.84;;;14.93;70.49
75497;BME280;64074;47.540;19.072;2023-06-14T03:05:35;100330.97;;;14.75;71.41
75497;BME280;64074;47.540;19.072;2023-06-14T03:08:38;100337.22;;;14.84;71.14
75497;BME280;64074;47.540;19.072;2023-06-14T03:11:47;100338.00;;;14.85;71.35
75497;BME280;64074;47.540;19.072;2023-06-14T03:14:52;100338.66;;;14.82;71.31
75497;BME280;64074;47.540;19.072;2023-06-14T03:17:58;100331.31;;;14.65;71.74
75497;BME280;64074;47.540;19.072;2023-06-14T03:21:03;100328.75;;;14.68;71.43
75497;BME280;64074;47.540;19.072;2023-06-14T03:24:06;100326.63;;;14.91;69.96
75497;BME280;64074;47.540;19.072;2023-06-14T03:27:10;100331.31;;;14.73;70.54
75497;BME280;64074;47.540;19.072;2023-06-14T03:30:17;100337.69;;;14.34;71.78
75497;BME280;64074;47.540;19.072;2023-06-14T03:33:23;100333.22;;;14.56;70.50
75497;BME280;64074;47.540;19.072;2023-06-14T03:36:28;100336.75;;;14.82;69.80
75497;BME280;64074;47.540;19.072;2023-06-14T03:39:32;100337.91;;;14.64;70.18
75497;BME280;64074;47.540;19.072;2023-06-14T03:42:38;100337.72;;;14.52;70.72
75497;BME280;64074;47.540;19.072;2023-06-14T03:45:41;100342.88;;;14.53;70.70
75497;BME280;64074;47.540;19.072;2023-06-14T03:48:45;100344.78;;;14.78;69.90
75497;BME280;64074;47.540;19.072;2023-06-14T03:51:50;100341.09;;;14.74;70.13
75497;BME280;64074;47.540;19.072;2023-06-14T03:54:58;100346.72;;;14.61;70.51
75497;BME280;64074;47.540;19.072;2023-06-14T03:58:08;100338.06;;;14.67;70.44
75497;BME280;64074;47.540;19.072;2023-06-14T04:01:12;100346.53;;;14.83;70.12
75497;BME280;64074;47.540;19.072;2023-06-14T04:04:15;100346.88;;;14.90;69.70
75497;BME280;64074;47.540;19.072;2023-06-14T04:07:20;100344.38;;;15.23;68.70
75497;BME280;64074;47.540;19.072;2023-06-14T04:10:27;100346.91;;;15.28;68.87
75497;BME280;64074;47.540;19.072;2023-06-14T04:13:32;100352.66;;;15.44;67.98
75497;BME280;64074;47.540;19.072;2023-06-14T04:16:38;100357.19;;;15.31;68.40
75497;BME280;64074;47.540;19.072;2023-06-14T04:19:41;100362.28;;;15.50;67.70
75497;BME280;64074;47.540;19.072;2023-06-14T04:22:51;100360.16;;;15.64;67.45
75497;BME280;64074;47.540;19.072;2023-06-14T04:26:00;100365.91;;;15.72;67.12
75497;BME280;64074;47.540;19.072;2023-06-14T04:29:05;100370.84;;;15.87;66.72
75497;BME280;64074;47.540;19.072;2023-06-14T04:32:15;100364.84;;;15.64;67.02
75497;BME280;64074;47.540;19.072;2023-06-14T04:35:21;100350.69;;;15.62;67.36
75497;BME280;64074;47.540;19.072;2023-06-14T04:38:26;100358.75;;;15.88;66.20
75497;BME280;64074;47.540;19.072;2023-06-14T04:41:37;100351.31;;;15.97;66.46
75497;BME280;64074;47.540;19.072;2023-06-14T04:44:42;100373.09;;;16.14;66.22
75497;BME280;64074;47.540;19.072;2023-06-14T04:47:47;100362.47;;;16.34;65.07
75497;BME280;64074;47.540;19.072;2023-06-14T04:50:51;100374.19;;;16.43;65.41
75497;BME280;64074;47.540;19.072;2023-06-14T04:54:02;100370.78;;;16.46;64.66
75497;BME280;64074;47.540;19.072;2023-06-14T04:57:24;100368.69;;;16.43;64.62
75497;BME280;64074;47.540;19.072;2023-06-14T05:00:38;100370.31;;;16.44;64.82
75497;BME280;64074;47.540;19.072;2023-06-14T05:03:47;100373.25;;;16.39;64.01
75497;BME280;64074;47.540;19.072;2023-06-14T05:06:57;100381.25;;;16.44;63.60
75497;BME280;64074;47.540;19.072;2023-06-14T05:10:24;100380.31;;;16.40;64.11
75497;BME280;64074;47.540;19.072;2023-06-14T05:13:43;100373.38;;;16.63;63.58
75497;BME280;64074;47.540;19.072;2023-06-14T05:16:57;100373.66;;;16.70;62.93
75497;BME280;64074;47.540;19.072;2023-06-14T05:20:07;100355.47;;;16.66;62.55
75497;BME280;64074;47.540;19.072;2023-06-14T05:23:11;100366.44;;;16.66;62.57
75497;BME280;64074;47.540;19.072;2023-06-14T05:26:19;100381.44;;;16.80;62.25
75497;BME280;64074;47.540;19.072;2023-06-14T05:29:22;100372.72;;;16.87;61.87
75497;BME280;64074;47.540;19.072;2023-06-14T05:32:25;100370.91;;;16.91;61.79
75497;BME280;64074;47.540;19.072;2023-06-14T05:35:31;100378.56;;;16.56;62.73
75497;BME280;64074;47.540;19.072;2023-06-14T05:38:34;100380.38;;;16.52;62.87
75497;BME280;64074;47.540;19.072;2023-06-14T05:41:39;100375.16;;;16.59;62.77
75497;BME280;64074;47.540;19.072;2023-06-14T05:44:49;100376.03;;;16.92;61.85
75497;BME280;64074;47.540;19.072;2023-06-14T05:47:53;100377.91;;;16.80;62.12
75497;BME280;64074;47.540;19.072;2023-06-14T05:51:00;100381.13;;;16.82;62.29
75497;BME280;64074;47.540;19.072;2023-06-14T05:54:03;100380.53;;;17.09;61.63
75497;BME280;64074;47.540;19.072;2023-06-14T05:57:13;100384.34;;;17.17;61.45
75497;BME280;64074;47.540;19.072;2023-06-14T06:00:17;100369.97;;;17.32;60.77
75497;BME280;64074;47.540;19.072;2023-06-14T06:03:21;100383.63;;;17.65;59.84
75497;BME280;64074;47.540;19.072;2023-06-14T06:06:28;100387.31;;;17.69;60.03
75497;BME280;64074;47.540;19.072;2023-06-14T06:09:32;100379.78;;;17.78;59.60
75497;BME280;64074;47.540;19.072;2023-06-14T06:12:48;100374.97;;;18.00;59.16
75497;BME280;64074;47.540;19.072;2023-06-14T06:15:53;100361.72;;;18.02;58.33
75497;BME280;64074;47.540;19.072;2023-06-14T06:18:56;100374.25;;;18.27;58.26
75497;BME280;64074;47.540;19.072;2023-06-14T06:22:02;100373.00;;;18.37;57.97
75497;BME280;64074;47.540;19.072;2023-06-14T06:25:07;100390.75;;;18.15;58.17
75497;BME280;64074;47.540;19.072;2023-06-14T06:28:11;100379.19;;;18.22;57.89
75497;BME280;64074;47.540;19.072;2023-06-14T06:31:16;100379.88;;;18.06;58.33
75497;BME280;64074;47.540;19.072;2023-06-14T06:34:23;100377.59;;;18.21;57.60
75497;BME280;64074;47.540;19.072;2023-06-14T06:37:27;100387.81;;;18.48;57.75
75497;BME280;64074;47.540;19.072;2023-06-14T06:40:30;100384.84;;;18.65;57.08
75497;BME280;64074;47.540;19.072;2023-06-14T06:43:33;100389.91;;;18.39;57.63
75497;BME280;64074;47.540;19.072;2023-06-14T06:46:39;100386.91;;;18.44;57.71
75497;BME280;64074;47.540;19.072;2023-06-14T06:49:44;100386.88;;;18.68;56.91
75497;BME280;64074;47.540;19.072;2023-06-14T06:52:47;100382.84;;;18.78;56.50
75497;BME280;64074;47.540;19.072;2023-06-14T06:55:57;100380.66;;;18.84;56.17
75497;BME280;64074;47.540;19.072;2023-06-14T06:59:05;100384.69;;;19.02;55.92
75497;BME280;64074;47.540;19.072;2023-06-14T07:02:19;100374.88;;;19.32;55.13
75497;BME280;64074;47.540;19.072;2023-06-14T07:05:25;100378.56;;;19.52;55.02
75497;BME280;64074;47.540;19.072;2023-06-14T07:08:40;100365.59;;;19.53;54.00
75497;BME280;64074;47.540;19.072;2023-06-14T07:11:45;100383.41;;;19.27;54.31
75497;BME280;64074;47.540;19.072;2023-06-14T07:14:54;100390.56;;;19.60;53.61
75497;BME280;64074;47.540;19.072;2023-06-14T07:17:58;100391.34;;;20.08;53.12
75497;BME280;64074;47.540;19.072;2023-06-14T07:21:38;100390.72;;;19.98;52.48
75497;BME280;64074;47.540;19.072;2023-06-14T07:24:47;100395.13;;;20.19;51.74
75497;BME280;64074;47.540;19.072;2023-06-14T07:27:55;100380.44;;;19.80;52.43
75497;BME280;64074;47.540;19.072;2023-06-14T07:31:00;100387.81;;;19.76;52.49
75497;BME280;64074;47.540;19.072;2023-06-14T07:34:19;100371.03;;;19.96;52.52
75497;BME280;64074;47.540;19.072;2023-06-14T07:37:24;100364.69;;;20.12;51.38
75497;BME280;64074;47.540;19.072;2023-06-14T07:40:28;100391.66;;;20.22;51.43
75497;BME280;64074;47.540;19.072;2023-06-14T07:43:32;100391.09;;;20.48;50.37
75497;BME280;64074;47.540;19.072;2023-06-14T07:46:35;100402.22;;;20.90;49.19
75497;BME280;64074;47.540;19.072;2023-06-14T07:49:39;100392.59;;;21.23;47.93
75497;BME280;64074;47.540;19.072;2023-06-14T07:52:42;100396.66;;;21.29;47.07
75497;BME280;64074;47.540;19.072;2023-06-14T07:55:45;100403.72;;;21.07;47.34
75497;BME280;64074;47.540;19.072;2023-06-14T07:58:56;100397.81;;;21.28;46.85
75497;BME280;64074;47.540;19.072;2023-06-14T08:02:00;100403.19;;;21.40;46.72
75497;BME280;64074;47.540;19.072;2023-06-14T08:05:04;100402.34;;;21.36;45.71
75497;BME280;64074;47.540;19.072;2023-06-14T08:08:10;100391.53;;;21.50;45.08
75497;BME280;64074;47.540;19.072;2023-06-14T08:11:13;100396.31;;;21.53;45.64
75497;BME280;64074;47.540;19.072;2023-06-14T08:14:16;100397.25;;;21.61;45.87
75497;BME280;64074;47.540;19.072;2023-06-14T08:17:29;100393.88;;;21.71;45.63
75497;BME280;64074;47.540;19.072;2023-06-14T08:20:34;100388.66;;;21.89;44.47
75497;BME280;64074;47.540;19.072;2023-06-14T08:23:37;100387.81;;;21.39;46.14
75497;BME280;64074;47.540;19.072;2023-06-14T08:26:41;100399.94;;;21.34;46.31
75497;BME280;64074;47.540;19.072;2023-06-14T08:29:45;100399.63;;;21.85;45.66
75497;BME280;64074;47.540;19.072;2023-06-14T08:32:52;100394.22;;;22.45;44.31
75497;BME280;64074;47.540;19.072;2023-06-14T08:36:17;100403.41;;;22.00;45.50
75497;BME280;64074;47.540;19.072;2023-06-14T08:39:23;100407.22;;;22.41;43.99
75497;BME280;64074;47.540;19.072;2023-06-14T08:42:26;100412.63;;;22.34;44.74
75497;BME280;64074;47.540;19.072;2023-06-14T08:45:34;100408.72;;;22.35;46.57
75497;BME280;64074;47.540;19.072;2023-06-14T08:48:37;100417.16;;;21.96;46.21
75497;BME280;64074;47.540;19.072;2023-06-14T08:51:45;100419.25;;;21.80;47.15
75497;BME280;64074;47.540;19.072;2023-06-14T08:54:50;100428.88;;;21.90;46.35
75497;BME280;64074;47.540;19.072;2023-06-14T08:57:55;100428.63;;;21.98;45.95
75497;BME280;64074;47.540;19.072;2023-06-14T09:01:03;100433.25;;;21.91;45.22
75497;BME280;64074;47.540;19.072;2023-06-14T09:04:07;100438.41;;;22.41;45.59
75497;BME280;64074;47.540;19.072;2023-06-14T09:07:11;100430.78;;;22.91;45.15
75497;BME280;64074;47.540;19.072;2023-06-14T09:10:16;100444.19;;;22.89;44.96
75497;BME280;64074;47.540;19.072;2023-06-14T09:13:24;100438.59;;;22.82;43.10
75497;BME280;64074;47.540;19.072;2023-06-14T09:16:27;100437.41;;;22.83;42.14
75497;BME280;64074;47.540;19.072;2023-06-14T09:19:30;100435.25;;;22.73;42.67
75497;BME280;64074;47.540;19.072;2023-06-14T09:22:34;100437.91;;;22.36;43.84
75497;BME280;64074;47.540;19.072;2023-06-14T09:25:48;100445.28;;;22.55;44.13
75497;BME280;64074;47.540;19.072;2023-06-14T09:28:51;100439.66;;;22.48;44.94
75497;BME280;64074;47.540;19.072;2023-06-14T09:31:54;100431.63;;;22.65;45.53
75497;BME280;64074;47.540;19.072;2023-06-14T09:35:06;100437.75;;;22.52;44.99
75497;BME280;64074;47.540;19.072;2023-06-14T09:38:42;100424.66;;;22.79;44.15
75497;BME280;64074;47.540;19.072;2023-06-14T09:41:57;100424.66;;;22.79;44.42
75497;BME280;64074;47.540;19.072;2023-06-14T09:45:06;100414.75;;;23.04;42.87
75497;BME280;64074;47.540;19.072;2023-06-14T09:48:11;100411.44;;;22.91;41.79
75497;BME280;64074;47.540;19.072;2023-06-14T09:51:27;100414.13;;;23.18;41.28
75497;BME280;64074;47.540;19.072;2023-06-14T09:54:57;100408.28;;;22.93;42.09
75497;BME280;64074;47.540;19.072;2023-06-14T09:58:05;100410.44;;;23.44;41.43
75497;BME280;64074;47.540;19.072;2023-06-14T10:01:20;100405.94;;;23.69;40.40
75497;BME280;64074;47.540;19.072;2023-06-14T10:04:27;100409.47;;;23.66;40.58
75497;BME280;64074;47.540;19.072;2023-06-14T10:11:43;100401.00;;;23.11;37.15
75497;BME280;64074;47.540;19.072;2023-06-14T10:14:50;100396.22;;;23.45;35.75
75497;BME280;64074;47.540;19.072;2023-06-14T10:24:52;100389.19;;;24.61;34.95
75497;BME280;64074;47.540;19.072;2023-06-14T10:28:23;100386.63;;;25.14;33.27
75497;BME280;64074;47.540;19.072;2023-06-14T10:31:46;100392.22;;;25.36;33.06
75497;BME280;64074;47.540;19.072;2023-06-14T10:35:18;100386.22;;;25.09;33.94
75497;BME280;64074;47.540;19.072;2023-06-14T10:38:30;100387.41;;;25.19;33.73
75497;BME280;64074;47.540;19.072;2023-06-14T10:41:38;100388.56;;;25.00;33.74
75497;BME280;64074;47.540;19.072;2023-06-14T10:45:23;100389.06;;;25.55;34.90
75497;BME280;64074;47.540;19.072;2023-06-14T10:50:03;100393.19;;;24.74;35.65
75497;BME280;64074;47.540;19.072;2023-06-14T10:53:43;100385.66;;;24.78;37.07
75497;BME280;64074;47.540;19.072;2023-06-14T10:57:31;100381.34;;;24.81;38.22
75497;BME280;64074;47.540;19.072;2023-06-14T11:01:05;100382.06;;;24.64;37.33
75497;BME280;64074;47.540;19.072;2023-06-14T11:04:54;100369.09;;;24.89;36.55
75497;BME280;64074;47.540;19.072;2023-06-14T11:13:03;100372.38;;;23.74;36.17
75497;BME280;64074;47.540;19.072;2023-06-14T11:16:49;100375.72;;;24.01;35.74
75497;BME280;64074;47.540;19.072;2023-06-14T11:22:40;100357.88;;;24.57;34.57
75497;BME280;64074;47.540;19.072;2023-06-14T11:27:42;100357.31;;;25.99;33.84
75497;BME280;64074;47.540;19.072;2023-06-14T11:30:59;100354.50;;;26.34;33.22
75497;BME280;64074;47.540;19.072;2023-06-14T11:34:03;100356.53;;;25.45;34.67
75497;BME280;64074;47.540;19.072;2023-06-14T11:37:29;100364.47;;;25.46;35.83
75497;BME280;64074;47.540;19.072;2023-06-14T11:40:38;100368.06;;;25.83;34.43
75497;BME280;64074;47.540;19.072;2023-06-14T11:44:04;100370.75;;;26.43;32.93
75497;BME280;64074;47.540;19.072;2023-06-14T11:47:36;100363.69;;;25.92;35.06
75497;BME280;64074;47.540;19.072;2023-06-14T11:50:40;100377.19;;;25.97;34.06
75497;BME280;64074;47.540;19.072;2023-06-14T11:53:52;100367.59;;;26.20;34.15
75497;BME280;64074;47.540;19.072;2023-06-14T11:58:29;100368.22;;;26.84;32.96
75497;BME280;64074;47.540;19.072;2023-06-14T12:02:04;100371.56;;;27.24;32.45
75497;BME280;64074;47.540;19.072;2023-06-14T12:05:08;100371.56;;;27.27;32.82
75497;BME280;64074;47.540;19.072;2023-06-14T12:08:34;100374.06;;;28.11;31.98
75497;BME280;64074;47.540;19.072;2023-06-14T12:11:43;100380.72;;;28.21;31.06
75497;BME280;64074;47.540;19.072;2023-06-14T12:14:51;100367.81;;;26.86;32.05
75497;BME280;64074;47.540;19.072;2023-06-14T12:17:55;100380.72;;;26.30;33.37
75497;BME280;64074;47.540;19.072;2023-06-14T12:20:59;100361.25;;;26.30;33.60
75497;BME280;64074;47.540;19.072;2023-06-14T12:24:14;100346.22;;;25.42;34.40
75497;BME280;64074;47.540;19.072;2023-06-14T12:27:28;100364.41;;;26.39;33.81
75497;BME280;64074;47.540;19.072;2023-06-14T12:31:00;100371.81;;;27.47;31.61
75497;BME280;64074;47.540;19.072;2023-06-14T12:34:36;100368.59;;;28.01;30.94
75497;BME280;64074;47.540;19.072;2023-06-14T12:37:50;100367.13;;;29.52;27.90
75497;BME280;64074;47.540;19.072;2023-06-14T12:41:28;100374.22;;;29.03;28.34
75497;BME280;64074;47.540;19.072;2023-06-14T12:44:38;100381.88;;;27.86;29.62
75497;BME280;64074;47.540;19.072;2023-06-14T12:47:43;100367.72;;;27.66;28.89
75497;BME280;64074;47.540;19.072;2023-06-14T12:50:47;100370.59;;;28.72;27.31
75497;BME280;64074;47.540;19.072;2023-06-14T12:54:10;100362.00;;;29.20;26.81
75497;BME280;64074;47.540;19.072;2023-06-14T12:57:16;100346.66;;;29.32;26.44
75497;BME280;64074;47.540;19.072;2023-06-14T13:01:13;100346.66;;;30.06;25.41
75497;BME280;64074;47.540;19.072;2023-06-14T13:10:01;100361.50;;;27.44;29.17
75497;BME280;64074;47.540;19.072;2023-06-14T13:13:04;100348.53;;;26.32;30.40
75497;BME280;64074;47.540;19.072;2023-06-14T13:16:10;100359.31;;;25.45;31.39
75497;BME280;64074;47.540;19.072;2023-06-14T13:19:19;100356.94;;;25.75;31.80
75497;BME280;64074;47.540;19.072;2023-06-14T13:22:25;100358.53;;;25.69;31.59
75497;BME280;64074;47.540;19.072;2023-06-14T13:25:46;100341.47;;;25.28;30.99
75497;BME280;64074;47.540;19.072;2023-06-14T13:28:50;100356.72;;;24.62;32.20
75497;BME280;64074;47.540;19.072;2023-06-14T13:31:57;100354.13;;;25.08;31.86
75497;BME280;64074;47.540;19.072;2023-06-14T13:35:02;100344.63;;;25.41;31.29
75497;BME280;64074;47.540;19.072;2023-06-14T13:38:14;100351.69;;;25.03;31.60
75497;BME280;64074;47.540;19.072;2023-06-14T13:41:27;100336.28;;;25.05;30.56
75497;BME280;64074;47.540;19.072;2023-06-14T13:44:37;100334.72;;;25.36;29.85
75497;BME280;64074;47.540;19.072;2023-06-14T13:47:46;100330.38;;;25.74;29.57
75497;BME280;64074;47.540;19.072;2023-06-14T13:50:52;100334.75;;;27.02;28.50
75497;BME280;64074;47.540;19.072;2023-06-14T13:54:06;100325.50;;;27.16;28.55
75497;BME280;64074;47.540;19.072;2023-06-14T13:58:14;100336.94;;;27.80;28.21
75497;BME280;64074;47.540;19.072;2023-06-14T14:02:23;100328.34;;;28.05;27.67
75497;BME280;64074;47.540;19.072;2023-06-14T14:05:58;100336.88;;;27.39;27.21
75497;BME280;64074;47.540;19.072;2023-06-14T14:09:11;100331.56;;;25.73;29.25
75497;BME280;64074;47.540;19.072;2023-06-14T14:12:18;100334.31;;;25.45;29.68
75497;BME280;64074;47.540;19.072;2023-06-14T14:15:22;100332.25;;;26.24;29.26
75497;BME280;64074;47.540;19.072;2023-06-14T14:18:25;100335.88;;;26.10;29.16
75497;BME280;64074;47.540;19.072;2023-06-14T14:21:32;100332.28;;;26.13;27.82
75497;BME280;64074;47.540;19.072;2023-06-14T14:24:35;100333.91;;;26.03;27.72
75497;BME280;64074;47.540;19.072;2023-06-14T14:27:38;100340.19;;;26.22;27.71
75497;BME280;64074;47.540;19.072;2023-06-14T14:30:43;100335.47;;;26.01;28.33
75497;BME280;64074;47.540;19.072;2023-06-14T14:33:46;100331.47;;;26.38;27.57
75497;BME280;64074;47.540;19.072;2023-06-14T14:36:49;100339.31;;;27.34;25.93
75497;BME280;64074;47.540;19.072;2023-06-14T14:39:51;100327.94;;;28.71;24.35
75497;BME280;64074;47.540;19.072;2023-06-14T14:42:54;100330.44;;;28.66;24.41
75497;BME280;64074;47.540;19.072;2023-06-14T14:45:57;100326.72;;;29.57;23.65
75497;BME280;64074;47.540;19.072;2023-06-14T14:49:00;100326.44;;;30.18;22.72
75497;BME280;64074;47.540;19.072;2023-06-14T14:52:03;100332.34;;;29.30;23.62
75497;BME280;64074;47.540;19.072;2023-06-14T14:55:25;100332.47;;;28.92;24.34
75497;BME280;64074;47.540;19.072;2023-06-14T14:58:28;100335.25;;;27.42;25.42
75497;BME280;64074;47.540;19.072;2023-06-14T15:01:30;100329.03;;;27.27;26.78
75497;BME280;64074;47.540;19.072;2023-06-14T15:04:33;100328.75;;;25.98;27.52
75497;BME280;64074;47.540;19.072;2023-06-14T15:07:37;100324.72;;;26.28;27.74
75497;BME280;64074;47.540;19.072;2023-06-14T15:10:44;100319.22;;;25.99;29.12
75497;BME280;64074;47.540;19.072;2023-06-14T15:13:47;100324.69;;;26.24;28.56
75497;BME280;64074;47.540;19.072;2023-06-14T15:16:51;100320.84;;;25.68;29.78
75497;BME280;64074;47.540;19.072;2023-06-14T15:19:55;100326.38;;;25.51;30.91
75497;BME280;64074;47.540;19.072;2023-06-14T15:22:58;100322.41;;;25.44;31.51
75497;BME280;64074;47.540;19.072;2023-06-14T15:26:04;100327.94;;;25.09;32.59
75497;BME280;64074;47.540;19.072;2023-06-14T15:29:07;100321.63;;;25.15;32.50
75497;BME280;64074;47.540;19.072;2023-06-14T15:32:11;100317.25;;;25.18;32.50
75497;BME280;64074;47.540;19.072;2023-06-14T15:35:16;100312.09;;;25.63;32.50
75497;BME280;64074;47.540;19.072;2023-06-14T15:38:22;100319.22;;;25.21;33.04
75497;BME280;64074;47.540;19.072;2023-06-14T15:41:28;100310.50;;;25.26;33.02
75497;BME280;64074;47.540;19.072;2023-06-14T15:44:31;100310.53;;;25.62;33.16
75497;BME280;64074;47.540;19.072;2023-06-14T15:47:34;100321.25;;;25.60;33.23
75497;BME280;64074;47.540;19.072;2023-06-14T15:50:38;100315.28;;;25.04;34.13
75497;BME280;64074;47.540;19.072;2023-06-14T15:53:43;100321.19;;;25.03;34.10
75497;BME280;64074;47.540;19.072;2023-06-14T15:56:47;100317.13;;;24.72;34.52
75497;BME280;64074;47.540;19.072;2023-06-14T15:59:52;100327.28;;;24.32;34.61
75497;BME280;64074;47.540;19.072;2023-06-14T16:02:55;100329.28;;;24.35;34.92
75497;BME280;64074;47.540;19.072;2023-06-14T16:05:59;100327.16;;;24.14;35.18
75497;BME280;64074;47.540;19.072;2023-06-14T16:09:03;100323.88;;;23.98;35.71
75497;BME280;64074;47.540;19.072;2023-06-14T16:12:07;100322.00;;;24.13;35.71
75497;BME280;64074;47.540;19.072;2023-06-14T16:15:10;100336.13;;;23.97;35.17
75497;BME280;64074;47.540;19.072;2023-06-14T16:18:13;100340.50;;;23.98;34.79
75497;BME280;64074;47.540;19.072;2023-06-14T16:21:16;100333.75;;;23.96;35.16
75497;BME280;64074;47.540;19.072;2023-06-14T16:24:24;100330.22;;;24.02;34.92
75497;BME280;64074;47.540;19.072;2023-06-14T16:27:27;100334.91;;;23.91;35.22
75497;BME280;64074;47.540;19.072;2023-06-14T16:30:30;100341.34;;;24.06;35.25
75497;BME280;64074;47.540;19.072;2023-06-14T16:33:33;100351.13;;;23.89;35.33
75497;BME280;64074;47.540;19.072;2023-06-14T16:36:37;100348.31;;;23.82;35.90
75497;BME280;64074;47.540;19.072;2023-06-14T16:39:41;100352.25;;;24.39;35.16
75497;BME280;64074;47.540;19.072;2023-06-14T16:42:44;100350.81;;;24.74;34.33